Time;durP1;ratioP1;P1;durP2;ratioP2;P2;SDS_P1;SDS_P2;PMS_P1;PMS_P2;Temp;Humidity;BMP_temperature;BMP_pressure;BME280_temperature;BME280_humidity;BME280_pressure;Samples;Min_cycle;Max_cycle;Signal;HPM_P1;HPM_P2
2022/05/24 00:00:25;;;;;;;18.60;6.40;;;;;;;11.94;45.87;98790.16;25111;1312;3049594;-67
2022/05/24 00:02:54;;;;;;;12.10;4.80;;;;;;;11.92;46.09;98790.95;25198;1312;3028057;-72
2022/05/24 00:05:24;;;;;;;14.70;5.30;;;;;;;11.91;46.08;98788.08;25112;1312;3026611;-68
2022/05/24 00:07:54;;;;;;;10.70;4.50;;;;;;;11.90;45.96;98787.43;25157;1314;3049746;-67
2022/05/24 00:10:28;;;;;;;13.10;5.40;;;;;;;11.90;45.80;98789.02;25156;1312;3026455;-70
2022/05/24 00:12:59;;;;;;;17.30;5.80;;;;;;;11.91;45.70;98791.27;25145;1312;3026244;-68
2022/05/24 00:15:30;;;;;;;13.80;5.20;;;;;;;11.91;45.38;98788.23;25103;1312;3027061;-64
2022/05/24 00:18:01;;;;;;;16.20;5.90;;;;;;;11.92;45.40;98789.23;25163;1312;3026620;-65
2022/05/24 00:20:39;;;;;;;15.20;5.00;;;;;;;11.91;45.10;98786.16;25122;1312;3026584;-67
2022/05/24 00:23:08;;;;;;;18.50;4.90;;;;;;;11.91;45.07;98789.29;25160;1312;3052336;-64
2022/05/24 00:25:41;;;;;;;11.10;4.70;;;;;;;11.91;45.06;98789.10;25118;1312;3026496;-69
2022/05/24 00:28:10;;;;;;;14.00;5.70;;;;;;;11.91;44.91;98787.02;25054;1315;3027501;-64
2022/05/24 00:30:39;;;;;;;15.10;5.10;;;;;;;11.91;44.99;98787.36;25129;1312;3026935;-66
2022/05/24 00:33:08;;;;;;;11.30;4.80;;;;;;;11.89;44.49;98792.96;25138;1312;3058191;-65
2022/05/24 00:35:37;;;;;;;11.00;4.10;;;;;;;11.85;44.44;98792.40;25106;1312;3029353;-66
2022/05/24 00:38:09;;;;;;;12.10;4.50;;;;;;;11.83;44.44;98791.69;25063;1315;3054639;-64
2022/05/24 00:40:44;;;;;;;14.10;5.40;;;;;;;11.82;44.30;98792.61;25078;1312;3026095;-69
2022/05/24 00:43:34;;;;;;;12.60;4.70;;;;;;;11.83;44.24;98791.48;25086;1312;3052530;-67
2022/05/24 00:46:17;;;;;;;12.80;4.80;;;;;;;11.82;44.09;98788.45;25132;1312;3056006;-67
2022/05/24 00:48:56;;;;;;;9.60;4.60;;;;;;;11.80;44.21;98785.42;25108;1312;3052713;-64
2022/05/24 00:51:34;;;;;;;11.30;4.60;;;;;;;11.77;44.19;98790.02;25060;1315;3069199;-65
2022/05/24 00:54:03;;;;;;;10.70;4.20;;;;;;;11.72;44.11;98797.79;25109;1312;3047710;-65
2022/05/24 00:57:03;;;;;;;11.20;4.10;;;;;;;11.70;44.32;98795.13;25118;1312;3026483;-66
2022/05/24 00:59:34;;;;;;;10.70;4.00;;;;;;;11.68;44.13;98798.40;25076;1312;3053781;-70
2022/05/24 01:02:07;;;;;;;10.50;4.60;;;;;;;11.67;44.14;98793.63;25139;1312;3056526;-68
2022/05/24 01:04:38;;;;;;;9.40;4.30;;;;;;;11.64;44.01;98793.52;25124;1312;3026520;-65
2022/05/24 01:07:07;;;;;;;11.20;4.50;;;;;;;11.65;44.08;98795.71;25114;1312;3027523;-70
2022/05/24 01:09:44;;;;;;;15.10;4.70;;;;;;;11.66;43.90;98798.36;25046;1312;3027240;-69
2022/05/24 01:12:18;;;;;;;14.50;4.90;;;;;;;11.66;43.66;98794.90;25135;1312;3069175;-69
2022/05/24 01:14:47;;;;;;;15.10;5.10;;;;;;;11.65;43.39;98794.80;25143;1312;3029521;-68
2022/05/24 01:17:18;;;;;;;15.40;5.10;;;;;;;11.65;43.64;98792.20;25065;1312;3026735;-66
2022/05/24 01:19:47;;;;;;;21.40;4.80;;;;;;;11.67;43.72;98790.45;24807;1312;3470146;-66
2022/05/24 01:22:54;;;;;;;20.70;5.30;;;;;;;11.68;43.64;98789.45;25088;1314;3048804;-68
2022/05/24 01:25:30;;;;;;;9.90;4.70;;;;;;;11.64;43.47;98789.60;25068;1312;3055083;-70
2022/05/24 01:27:59;;;;;;;13.60;5.20;;;;;;;11.64;43.72;98793.48;25130;1312;3052964;-66
2022/05/24 01:30:28;;;;;;;12.20;4.90;;;;;;;11.65;44.04;98793.95;25123;1315;3026849;-68
2022/05/24 01:38:33;;;;;;;17.50;5.10;;;;;;;11.57;44.47;98792.75;25117;1312;3058816;-66
2022/05/24 01:41:02;;;;;;;16.10;4.50;;;;;;;11.54;44.55;98798.23;25087;1312;3026770;-64
2022/05/24 01:43:31;;;;;;;13.50;5.20;;;;;;;11.55;44.43;98797.80;25063;1312;3026927;-68
2022/05/24 01:46:03;;;;;;;10.10;4.30;;;;;;;11.56;44.54;98797.91;25134;1312;3058059;-66
2022/05/24 01:48:35;;;;;;;17.30;5.10;;;;;;;11.57;44.45;98799.92;25180;1312;3027499;-66
2022/05/24 01:51:04;;;;;;;21.10;5.80;;;;;;;11.56;44.61;98801.09;25142;1315;3026212;-64
2022/05/24 01:53:37;;;;;;;15.20;5.60;;;;;;;11.56;44.47;98798.63;25102;1315;3026428;-63
2022/05/24 01:56:07;;;;;;;16.20;5.80;;;;;;;11.54;44.57;98795.60;25491;1315;3027494;-63
2022/05/24 01:58:36;;;;;;;14.20;5.20;;;;;;;11.55;44.53;98793.23;25552;1312;3026938;-63
2022/05/24 02:01:25;;;;;;;14.80;5.70;;;;;;;11.58;44.67;98795.48;25583;1315;3026545;-63
2022/05/24 02:03:54;;;;;;;15.40;5.90;;;;;;;11.61;44.42;98798.08;25185;1312;3071702;-65
2022/05/24 02:06:25;;;;;;;18.20;6.30;;;;;;;11.62;44.18;98800.25;25097;1312;3026846;-68
2022/05/24 02:08:56;;;;;;;19.70;5.60;;;;;;;11.63;44.13;98796.73;25195;1312;3053974;-66
2022/05/24 02:11:27;;;;;;;26.70;6.50;;;;;;;11.66;44.17;98801.01;25079;1315;3026564;-68
2022/05/24 02:14:01;;;;;;;14.70;5.50;;;;;;;11.73;43.89;98799.10;25153;1312;3053815;-67
2022/05/24 02:16:32;;;;;;;16.10;5.10;;;;;;;11.84;43.82;98799.63;25063;1312;3054067;-68
2022/05/24 02:19:03;;;;;;;14.80;5.40;;;;;;;11.97;43.46;98796.63;25078;1312;3027528;-67
2022/05/24 02:21:32;;;;;;;15.70;5.90;;;;;;;12.04;43.14;98796.77;25102;1314;3026778;-66
2022/05/24 02:24:01;;;;;;;22.20;6.40;;;;;;;12.04;43.14;98801.35;25117;1312;3053196;-67
2022/05/24 02:26:31;;;;;;;21.50;5.50;;;;;;;12.04;43.26;98801.88;25053;1312;3029625;-69
2022/05/24 02:29:01;;;;;;;20.00;6.30;;;;;;;12.06;43.25;98799.08;25059;1312;3055235;-67
2022/05/24 02:31:30;;;;;;;21.30;6.20;;;;;;;12.08;43.18;98801.17;25045;1312;3027686;-63
2022/05/24 02:33:59;;;;;;;17.40;6.10;;;;;;;12.12;43.21;98805.12;25124;1312;3026337;-66
2022/05/24 02:36:28;;;;;;;25.10;5.50;;;;;;;12.12;43.07;98810.23;25040;1312;3055097;-64
2022/05/24 02:38:58;;;;;;;18.70;6.00;;;;;;;12.07;43.20;98816.70;25031;1312;3026521;-63
2022/05/24 02:43:15;;;;;;;21.50;5.70;;;;;;;12.09;43.60;98809.90;31477;1321;3026275;-66
2022/05/24 02:45:44;;;;;;;16.40;7.30;;;;;;;12.35;43.25;98812.67;24887;1321;3026463;-67
2022/05/24 02:48:13;;;;;;;19.20;5.80;;;;;;;12.61;42.36;98811.29;24968;1321;3026648;-64
2022/05/24 02:50:42;;;;;;;15.20;5.80;;;;;;;12.52;42.78;98814.13;25049;1318;3048505;-69
2022/05/24 02:53:12;;;;;;;14.50;5.90;;;;;;;12.47;42.98;98815.76;25054;1318;3026970;-65
2022/05/24 02:55:41;;;;;;;16.30;5.70;;;;;;;12.43;42.94;98816.39;24840;1318;3283174;-66
2022/05/24 02:58:10;;;;;;;15.80;5.10;;;;;;;12.39;43.28;98819.84;25036;1316;3050683;-68
2022/05/24 03:00:41;;;;;;;21.70;6.10;;;;;;;12.37;43.35;98824.97;25114;1318;3027426;-64
2022/05/24 03:03:10;;;;;;;18.00;6.30;;;;;;;12.36;43.56;98824.16;25092;1316;3028057;-68
2022/05/24 03:05:39;;;;;;;17.40;6.30;;;;;;;12.39;43.76;98827.79;25099;1314;3026461;-68
2022/05/24 03:10:56;;;;;;;14.30;5.60;;;;;;;12.42;43.95;98831.42;25090;1314;3054900;-65
2022/05/24 03:16:14;;;;;;;15.70;7.00;;;;;;;12.42;44.24;98837.73;25107;1315;3055277;-63
2022/05/24 03:18:44;;;;;;;26.60;7.50;;;;;;;12.44;44.39;98837.10;25048;1314;3026371;-66
2022/05/24 03:21:13;;;;;;;28.90;8.20;;;;;;;12.48;44.61;98844.84;25092;1314;3026575;-68
2022/05/24 03:23:43;;;;;;;29.20;7.30;;;;;;;12.52;44.45;98838.34;25092;1315;3055225;-64
2022/05/24 03:26:14;;;;;;;26.00;7.80;;;;;;;12.57;44.57;98842.01;25031;1314;3026862;-66
2022/05/24 03:28:46;;;;;;;18.20;6.50;;;;;;;12.61;44.52;98842.73;25018;1314;3026298;-66
2022/05/24 03:31:16;;;;;;;23.20;7.70;;;;;;;12.66;44.15;98839.70;25023;1315;3026722;-63
2022/05/24 03:33:45;;;;;;;14.10;5.70;;;;;;;12.70;44.12;98841.73;25111;1314;3026911;-68
2022/05/24 03:36:19;;;;;;;20.50;6.70;;;;;;;12.70;43.53;98840.29;25117;1314;3026920;-65
2022/05/24 03:38:48;;;;;;;23.10;7.30;;;;;;;12.74;43.74;98842.03;25042;1313;3026562;-65
2022/05/24 03:41:17;;;;;;;19.20;6.10;;;;;;;12.81;43.24;98843.98;25130;1314;3027045;-64
2022/05/24 03:43:46;;;;;;;25.30;6.20;;;;;;;12.85;43.30;98842.75;25043;1314;3052014;-66
2022/05/24 03:46:17;;;;;;;18.90;6.80;;;;;;;12.91;43.01;98849.01;25020;1314;3026057;-67
2022/05/24 03:48:46;;;;;;;25.80;7.10;;;;;;;12.94;43.20;98850.87;25123;1314;3027025;-68
2022/05/24 03:51:18;;;;;;;21.50;6.10;;;;;;;12.93;43.65;98854.77;25203;1314;3026744;-66
2022/05/24 03:53:48;;;;;;;24.50;8.20;;;;;;;12.98;43.91;98855.64;25103;1315;3027538;-68
2022/05/24 03:56:17;;;;;;;27.00;8.10;;;;;;;13.00;44.19;98856.19;25148;1314;3026736;-67
2022/05/24 03:58:46;;;;;;;24.10;8.00;;;;;;;13.05;44.40;98855.58;25149;1315;3051487;-66
2022/05/24 04:01:15;;;;;;;39.30;8.90;;;;;;;13.12;44.37;98858.54;25164;1314;3026809;-68
2022/05/24 04:03:45;;;;;;;27.70;8.20;;;;;;;13.16;44.14;98860.48;25172;1314;3050736;-67
2022/05/24 04:06:14;;;;;;;29.10;8.00;;;;;;;13.19;44.03;98858.02;25098;1314;3026608;-65
2022/05/24 04:09:03;;;;;;;29.30;9.00;;;;;;;13.27;43.63;98859.14;25032;1314;3067588;-66
2022/05/24 04:11:34;;;;;;;30.30;8.40;;;;;;;13.34;43.51;98857.30;25107;1315;3026197;-66
2022/05/24 04:14:04;;;;;;;36.20;9.50;;;;;;;13.39;43.53;98861.48;25057;1314;3028060;-68
2022/05/24 04:16:33;;;;;;;28.10;8.50;;;;;;;13.47;43.54;98860.17;25079;1314;3029510;-66
2022/05/24 04:19:02;;;;;;;29.50;8.90;;;;;;;13.51;43.41;98854.38;25107;1315;3026929;-68
2022/05/24 04:21:32;;;;;;;25.70;7.90;;;;;;;13.57;43.72;98853.54;25111;1314;3055041;-70
2022/05/24 04:24:01;;;;;;;20.30;7.80;;;;;;;13.66;43.57;98847.02;25113;1314;3028939;-67
2022/05/24 04:26:30;;;;;;;23.20;7.30;;;;;;;13.73;43.78;98850.08;25105;1314;3051234;-66
2022/05/24 04:28:59;;;;;;;27.90;8.00;;;;;;;13.77;43.89;98852.44;25104;1314;3026717;-68
2022/05/24 04:31:28;;;;;;;21.10;7.30;;;;;;;13.77;43.79;98851.18;25026;1314;3070772;-69
2022/05/24 04:33:57;;;;;;;24.50;7.60;;;;;;;13.83;43.87;98851.92;25093;1315;3026377;-66
2022/05/24 04:36:26;;;;;;;24.30;7.90;;;;;;;13.90;43.83;98855.02;25053;1314;3052943;-69
2022/05/24 04:38:55;;;;;;;23.70;7.70;;;;;;;13.95;44.14;98859.02;25068;1314;3026474;-65
2022/05/24 04:44:11;;;;;;;33.00;12.70;;;;;;;14.00;42.86;98867.86;25038;1315;3053537;-71
2022/05/24 04:49:28;;;;;;;28.00;10.00;;;;;;;14.10;43.11;98868.65;25053;1314;3055949;-66
2022/05/24 04:51:57;;;;;;;18.90;7.60;;;;;;;14.14;42.78;98870.95;25106;1314;3026625;-64
2022/05/24 04:54:28;;;;;;;22.90;6.80;;;;;;;14.21;42.32;98871.40;25095;1314;3051022;-66
2022/05/24 04:56:57;;;;;;;19.10;6.00;;;;;;;14.25;41.93;98876.38;25080;1314;3026519;-69
2022/05/24 04:59:26;;;;;;;19.50;6.60;;;;;;;14.30;41.64;98880.86;25053;1315;3056919;-66
2022/05/24 05:01:55;;;;;;;17.00;6.30;;;;;;;14.36;41.91;98887.45;25094;1314;3026500;-67
2022/05/24 05:04:24;;;;;;;30.10;7.50;;;;;;;14.48;41.87;98883.91;25124;1315;3054280;-70
2022/05/24 05:06:53;;;;;;;28.40;6.50;;;;;;;14.59;41.87;98879.27;25099;1314;3028304;-68
2022/05/24 05:09:23;;;;;;;29.00;6.80;;;;;;;14.64;41.22;98879.05;25078;1314;3026372;-65
2022/05/24 05:11:52;;;;;;;25.60;7.20;;;;;;;14.70;40.94;98880.95;25146;1314;3054416;-65
2022/05/24 05:14:25;;;;;;;24.40;7.60;;;;;;;14.71;40.08;98886.23;25103;1314;3027366;-66
2022/05/24 05:16:53;;;;;;;24.10;7.00;;;;;;;14.76;40.04;98891.91;25006;1314;3026740;-63
2022/05/24 05:19:23;;;;;;;21.80;6.50;;;;;;;14.87;40.39;98898.02;25069;1314;3054268;-68
2022/05/24 05:21:52;;;;;;;30.30;6.80;;;;;;;14.98;39.47;98902.60;25069;1314;3026912;-65
2022/05/24 05:24:23;;;;;;;19.60;5.90;;;;;;;15.07;39.37;98903.88;25117;1314;3026959;-63
2022/05/24 05:26:52;;;;;;;24.10;7.10;;;;;;;15.19;39.31;98906.52;25068;1314;3029616;-67
2022/05/24 05:31:16;;;;;;;19.00;6.10;;;;;;;15.25;38.58;98905.27;25098;1314;3055847;-70
2022/05/24 05:32:16;;;;;;;21.30;6.60;;;;;;;15.38;38.85;98904.83;25135;1314;3052001;-66
2022/05/24 05:34:47;;;;;;;24.80;6.40;;;;;;;15.51;38.87;98904.16;25048;1317;3055680;-67
2022/05/24 05:37:16;;;;;;;19.00;6.30;;;;;;;15.62;38.50;98901.63;25146;1314;3026183;-70
2022/05/24 05:39:46;;;;;;;21.50;6.60;;;;;;;15.72;37.41;98901.30;25080;1315;3026744;-67
2022/05/24 05:42:16;;;;;;;25.00;6.60;;;;;;;15.78;37.24;98900.38;25088;1314;3027051;-66
2022/05/24 05:44:49;;;;;;;19.00;6.70;;;;;;;15.84;38.52;98894.55;25085;1314;3026712;-66
2022/05/24 05:47:18;;;;;;;23.60;6.60;;;;;;;15.87;36.38;98897.45;25020;1314;3026528;-65
2022/05/24 05:49:47;;;;;;;21.80;6.40;;;;;;;15.92;36.89;98900.88;25018;1314;3026618;-64
2022/05/24 05:52:17;;;;;;;18.00;5.60;;;;;;;16.01;36.62;98898.96;25034;1317;3027007;-62
2022/05/24 05:54:46;;;;;;;10.90;4.70;;;;;;;16.09;34.78;98899.51;25056;1315;3026485;-65
2022/05/24 05:57:15;;;;;;;17.40;4.70;;;;;;;16.15;32.91;98905.52;25106;1314;3058890;-64
2022/05/24 05:59:44;;;;;;;18.10;4.40;;;;;;;16.14;31.42;98905.41;25052;1314;3026771;-68
2022/05/24 06:02:13;;;;;;;17.80;5.10;;;;;;;16.15;32.89;98907.11;25060;1315;3053495;-66
2022/05/24 06:04:42;;;;;;;20.30;5.20;;;;;;;16.18;33.02;98907.33;25064;1314;3026829;-65
2022/05/24 06:07:11;;;;;;;23.80;5.80;;;;;;;16.19;32.35;98908.08;25116;1314;3051174;-65
2022/05/24 06:09:40;;;;;;;12.30;4.10;;;;;;;16.25;32.16;98910.02;25149;1314;3026587;-64
2022/05/24 06:12:09;;;;;;;11.50;3.90;;;;;;;16.35;31.86;98908.45;25096;1314;3049023;-67
2022/05/24 06:14:52;;;;;;;18.30;4.80;;;;;;;16.37;31.39;98911.41;25052;1314;3055334;-67
2022/05/24 06:17:24;;;;;;;17.20;4.60;;;;;;;16.45;31.78;98913.65;25024;1315;3026697;-64
2022/05/24 06:19:53;;;;;;;14.70;3.90;;;;;;;16.55;31.04;98916.41;25074;1314;3027025;-65
2022/05/24 06:22:22;;;;;;;10.70;3.90;;;;;;;16.67;30.24;98917.63;25060;1314;3026803;-67
2022/05/24 06:24:51;;;;;;;9.80;4.20;;;;;;;16.77;29.65;98919.15;25063;1314;3053959;-68
2022/05/24 06:27:21;;;;;;;10.50;3.70;;;;;;;16.82;28.17;98919.77;25126;1314;3026547;-66
2022/05/24 06:29:50;;;;;;;13.00;3.90;;;;;;;16.91;28.99;98913.91;25099;1314;3051818;-68
2022/05/24 06:32:19;;;;;;;12.20;4.00;;;;;;;17.05;29.03;98917.59;25081;1314;3026638;-66
2022/05/24 06:34:49;;;;;;;9.40;3.70;;;;;;;17.16;28.82;98913.54;25089;1314;3050534;-62
2022/05/24 06:37:20;;;;;;;10.70;3.60;;;;;;;17.17;27.94;98912.52;24989;1314;3031405;-66
2022/05/24 06:39:50;;;;;;;12.20;4.20;;;;;;;17.19;27.98;98913.77;25027;1314;3028638;-63
2022/05/24 06:42:19;;;;;;;13.70;4.00;;;;;;;17.20;28.07;98911.75;25063;1315;3026962;-70
2022/05/24 06:44:50;;;;;;;15.20;3.70;;;;;;;17.25;28.59;98917.55;25033;1315;3026692;-68
2022/05/24 06:47:19;;;;;;;15.20;3.30;;;;;;;17.34;28.44;98910.52;25085;1314;3026532;-68
2022/05/24 06:49:48;;;;;;;10.70;3.80;;;;;;;17.38;27.73;98911.16;25124;1312;3026895;-65
2022/05/24 06:52:18;;;;;;;13.60;3.50;;;;;;;17.47;28.03;98913.20;25188;1315;3052584;-63
2022/05/24 06:54:47;;;;;;;6.40;3.60;;;;;;;17.55;28.32;98911.66;25459;1314;3027591;-61
2022/05/24 06:57:16;;;;;;;12.70;3.90;;;;;;;17.66;28.38;98912.35;25429;1314;3055635;-61
2022/05/24 07:02:34;;;;;;;13.90;4.80;;;;;;;17.82;27.78;98910.43;25122;1316;3055724;-64
2022/05/24 07:05:07;;;;;;;12.10;4.30;;;;;;;17.84;27.85;98909.85;25193;1317;3026184;-67
2022/05/24 07:07:36;;;;;;;8.50;3.50;;;;;;;17.90;27.44;98908.20;25092;1316;3028425;-68
2022/05/24 07:10:08;;;;;;;11.30;3.70;;;;;;;17.99;27.57;98907.16;25128;1318;3027696;-67
2022/05/24 07:12:38;;;;;;;8.80;3.50;;;;;;;18.06;26.76;98905.04;25056;1318;3026233;-69
2022/05/24 07:15:08;;;;;;;10.10;4.40;;;;;;;18.02;26.54;98907.23;25263;1318;3026266;-70
2022/05/24 07:17:37;;;;;;;13.50;4.30;;;;;;;18.13;27.11;98906.70;25010;1318;3026554;-69
2022/05/24 07:20:09;;;;;;;11.50;4.10;;;;;;;18.15;26.48;98908.98;25007;1318;3026746;-68
2022/05/24 07:22:39;;;;;;;17.20;4.30;;;;;;;17.97;27.10;98906.13;25075;1317;3026681;-69
2022/05/24 07:25:11;;;;;;;15.10;4.40;;;;;;;18.00;27.05;98909.42;25071;1318;3027777;-65
2022/05/24 07:27:42;;;;;;;16.50;4.40;;;;;;;17.89;26.64;98905.00;25187;1318;3026901;-64
2022/05/24 07:30:11;;;;;;;17.60;4.90;;;;;;;18.12;26.70;98908.22;25094;1317;3026794;-70
2022/05/24 07:32:41;;;;;;;12.30;4.20;;;;;;;18.30;26.57;98902.84;25088;1316;3026378;-68
2022/05/24 07:35:10;;;;;;;15.20;4.70;;;;;;;18.42;26.35;98902.48;25046;1315;3071454;-69
2022/05/24 07:37:40;;;;;;;17.80;5.50;;;;;;;18.59;26.90;98906.23;25169;1314;3026215;-70
2022/05/24 07:45:48;;;;;;;13.00;4.60;;;;;;;18.54;26.82;98904.45;25039;1317;3052310;-65
2022/05/24 07:48:18;;;;;;;16.90;4.60;;;;;;;18.72;26.92;98901.33;25092;1316;3026608;-67
2022/05/24 07:50:47;;;;;;;12.00;5.30;;;;;;;18.75;26.18;98899.79;25030;1315;3030353;-70
2022/05/24 07:53:16;;;;;;;17.10;5.80;;;;;;;18.73;26.52;98899.11;25096;1315;3026616;-69
2022/05/24 07:55:45;;;;;;;11.80;4.50;;;;;;;18.79;26.94;98899.59;25088;1318;3051858;-71
2022/05/24 07:58:14;;;;;;;17.30;4.80;;;;;;;18.85;26.23;98898.64;25173;1315;3026946;-74
2022/05/24 08:00:43;;;;;;;16.70;4.60;;;;;;;18.86;26.30;98898.13;25069;1314;3026825;-63
2022/05/24 08:03:12;;;;;;;16.10;5.00;;;;;;;18.82;26.46;98899.30;25134;1315;3052466;-69
2022/05/24 08:05:42;;;;;;;21.20;5.30;;;;;;;18.70;26.71;98899.49;25051;1317;3026663;-73
2022/05/24 08:08:11;;;;;;;28.10;6.10;;;;;;;18.68;26.65;98902.01;25075;1315;3027078;-67
2022/05/24 08:10:40;;;;;;;15.20;5.80;;;;;;;18.74;27.28;98898.28;25003;1315;3054524;-65
2022/05/24 08:13:11;;;;;;;16.20;5.90;;;;;;;18.78;27.75;98900.10;25117;1315;3026463;-69
2022/05/24 08:15:40;;;;;;;20.50;5.70;;;;;;;18.68;27.49;98896.61;25087;1314;3049660;-71
2022/05/24 08:18:10;;;;;;;12.90;5.70;;;;;;;18.77;27.59;98897.33;25165;1315;3026307;-74
2022/05/24 08:20:39;;;;;;;14.20;4.70;;;;;;;18.76;27.53;98893.99;25171;1314;3026176;-65
2022/05/24 08:23:09;;;;;;;14.80;5.10;;;;;;;18.73;27.53;98895.61;25207;1314;3025971;-67
2022/05/24 08:25:39;;;;;;;17.70;5.30;;;;;;;18.74;27.57;98897.23;25161;1314;3026557;-67
2022/05/24 08:28:08;;;;;;;15.80;5.10;;;;;;;18.52;26.63;98896.81;25126;1314;3026814;-64
2022/05/24 08:30:38;;;;;;;13.50;4.50;;;;;;;18.42;25.97;98895.41;25025;1315;3057896;-71
2022/05/24 08:33:10;;;;;;;19.20;4.40;;;;;;;18.59;26.13;98896.70;25089;1314;3028071;-71
2022/05/24 08:35:40;;;;;;;13.10;4.90;;;;;;;18.75;25.56;98892.92;25020;1315;3026636;-66
2022/05/24 08:38:09;;;;;;;12.00;5.00;;;;;;;18.85;25.56;98890.79;25063;1315;3026929;-69
2022/05/24 08:40:41;;;;;;;16.40;5.90;;;;;;;18.92;25.63;98895.20;25030;1315;3026713;-71
2022/05/24 08:43:35;;;;;;;24.20;6.80;;;;;;;18.60;25.77;98899.81;25022;1315;3028326;-65
2022/05/24 08:49:18;;;;;;;21.00;6.80;;;;;;;19.15;25.72;98888.60;24999;1315;3055545;-66
2022/05/24 08:51:57;;;;;;;23.00;7.60;;;;;;;19.35;26.08;98890.08;25038;1315;3026565;-65
2022/05/24 08:54:38;;;;;;;22.60;7.60;;;;;;;19.30;24.93;98887.88;25075;1314;3052722;-67
2022/05/24 08:57:13;;;;;;;18.30;6.50;;;;;;;19.50;24.94;98880.05;25049;1314;3052715;-70
2022/05/24 08:59:45;;;;;;;22.50;7.40;;;;;;;19.52;24.55;98887.17;25068;1317;3057980;-72
2022/05/24 09:02:14;;;;;;;26.60;8.30;;;;;;;19.34;24.44;98880.06;25007;1314;3026563;-69
2022/05/24 09:04:43;;;;;;;30.20;9.10;;;;;;;19.38;24.54;98882.39;25118;1314;3026476;-64
2022/05/24 09:07:37;;;;;;;47.30;12.20;;;;;;;19.16;24.81;98880.48;25043;1317;3054774;-70
2022/05/24 09:10:16;;;;;;;33.30;11.10;;;;;;;18.99;25.61;98881.52;25091;1317;3052846;-69
2022/05/24 09:13:01;;;;;;;41.20;12.00;;;;;;;18.80;26.23;98884.53;25045;1314;3054263;-61
2022/05/24 09:15:45;;;;;;;41.20;13.40;;;;;;;18.78;26.34;98884.73;25038;1314;3054356;-67
2022/05/24 09:18:20;;;;;;;;;;;;;;;18.71;26.77;98882.36;25048;1314;3068440;-74
2022/05/24 09:20:50;;;;;;;38.10;12.10;;;;;;;18.92;26.41;98870.95;25048;1313;3050303;-65
2022/05/24 09:23:46;;;;;;;32.50;12.10;;;;;;;19.12;26.64;98869.53;25067;1314;3026541;-67
2022/05/24 09:26:24;;;;;;;34.00;12.30;;;;;;;19.28;26.73;98871.46;25078;1314;3071359;-65
2022/05/24 09:28:57;;;;;;;45.00;13.70;;;;;;;19.24;26.84;98869.55;25093;1314;3051441;-68
2022/05/24 09:31:32;;;;;;;42.60;13.70;;;;;;;19.19;26.65;98872.20;25134;1314;3052422;-64
2022/05/24 09:34:24;;;;;;;46.30;14.70;;;;;;;19.03;27.33;98874.93;25093;1314;3054125;-71
2022/05/24 09:36:57;;;;;;;36.60;11.90;;;;;;;19.33;27.15;98876.77;25038;1314;3059262;-71
2022/05/24 09:39:27;;;;;;;34.30;13.20;;;;;;;19.44;26.12;98876.64;25012;1315;3026804;-68
2022/05/24 09:42:01;;;;;;;35.00;12.00;;;;;;;19.60;25.99;98876.39;25018;1315;3026915;-64
2022/05/24 09:44:50;;;;;;;;;;;;;;;19.52;26.18;98876.19;25011;1315;3053876;-67
2022/05/24 09:47:32;;;;;;;27.20;10.20;;;;;;;19.49;26.13;98874.00;25138;1314;3069687;-71
2022/05/24 09:50:22;;;;;;;35.20;10.10;;;;;;;19.36;26.23;98873.02;25060;1315;3052099;-72
2022/05/24 09:53:08;;;;;;;19.00;6.10;;;;;;;19.33;25.80;98871.77;25077;1314;3052908;-64
2022/05/24 09:55:43;;;;;;;20.80;6.40;;;;;;;19.53;25.52;98867.66;24999;1315;3055126;-64
2022/05/24 09:58:31;;;;;;;21.80;6.20;;;;;;;19.69;25.57;98868.30;25114;1315;3056919;-69
2022/05/24 10:01:27;;;;;;;15.70;4.40;;;;;;;19.39;24.47;98872.73;24999;1314;3052776;-62
2022/05/24 10:04:10;;;;;;;14.10;4.90;;;;;;;19.81;24.39;98866.45;25068;1315;3056044;-67
2022/05/24 10:06:41;;;;;;;16.30;5.70;;;;;;;20.05;24.62;98871.84;25066;1315;3051034;-71
2022/05/24 10:09:19;;;;;;;17.50;5.60;;;;;;;20.09;24.46;98873.60;24996;1316;3026582;-68
2022/05/24 10:11:52;;;;;;;17.10;5.70;;;;;;;20.26;24.50;98862.60;24959;1317;3051952;-71
2022/05/24 10:14:49;;;;;;;11.20;5.70;;;;;;;20.52;24.46;98867.02;25023;1314;3055322;-69
2022/05/24 10:17:43;;;;;;;13.00;5.30;;;;;;;20.54;23.71;98869.69;24994;1314;3051504;-69
2022/05/24 10:20:31;;;;;;;;;;;;;;;20.23;23.97;98873.77;25129;1315;3059206;-69
2022/05/24 10:23:05;;;;;;;21.10;5.90;;;;;;;20.19;24.41;98875.52;25055;1314;3052272;-66
2022/05/24 10:25:40;;;;;;;11.90;5.10;;;;;;;20.37;23.96;98869.98;25089;1314;3054002;-66
2022/05/24 10:28:30;;;;;;;16.20;5.40;;;;;;;20.43;24.35;98871.39;25050;1315;3051195;-63
2022/05/24 10:30:59;;;;;;;18.00;5.20;;;;;;;20.46;24.54;98878.09;25007;1314;3071514;-64
2022/05/24 10:39:52;;;;;;;11.50;5.00;;;;;;;20.46;25.20;98874.29;25038;1315;3070980;-75
2022/05/24 10:42:30;;;;;;;17.10;5.10;;;;;;;20.50;24.89;98876.71;25038;1315;3025992;-69
2022/05/24 10:45:05;;;;;;;13.80;5.20;;;;;;;20.52;24.85;98875.64;25115;1315;3052005;-68
2022/05/24 10:47:50;;;;;;;11.60;4.90;;;;;;;20.48;25.36;98882.95;25039;1317;3026505;-67
2022/05/24 10:50:26;;;;;;;11.40;4.70;;;;;;;20.60;25.39;98882.23;25010;1316;3059168;-66
2022/05/24 10:53:00;;;;;;;13.90;5.30;;;;;;;20.62;24.77;98891.95;24995;1315;3050171;-63
2022/05/24 10:55:32;;;;;;;12.40;4.80;;;;;;;20.59;24.15;98887.06;25071;1315;3026794;-68
2022/05/24 10:58:15;;;;;;;9.70;4.60;;;;;;;20.88;24.28;98875.23;25013;1315;3028511;-65
2022/05/24 11:01:04;;;;;;;14.20;4.80;;;;;;;20.99;23.93;98869.70;25063;1316;3069523;-69
2022/05/24 11:03:36;;;;;;;12.50;5.50;;;;;;;21.34;24.27;98868.11;25111;1314;3047942;-65
2022/05/24 11:06:15;;;;;;;15.80;5.90;;;;;;;21.57;24.47;98869.13;25016;1315;3026225;-71
2022/05/24 11:09:06;;;;;;;21.30;6.00;;;;;;;21.80;24.99;98872.73;25039;1317;3055246;-70
2022/05/24 11:11:56;;;;;;;14.90;5.80;;;;;;;21.41;24.77;98870.42;25067;1314;3056807;-69
2022/05/24 11:14:28;;;;;;;19.30;6.20;;;;;;;21.20;24.68;98867.45;25061;1314;3050346;-68
2022/05/24 11:16:57;;;;;;;21.50;5.70;;;;;;;21.40;24.65;98859.07;25037;1315;3026451;-64
2022/05/24 11:19:27;;;;;;;12.20;5.60;;;;;;;21.50;24.65;98867.96;25028;1315;3026955;-68
2022/05/24 11:22:12;;;;;;;21.40;6.00;;;;;;;21.56;23.87;98859.25;25095;1314;3052350;-66
2022/05/24 11:25:02;;;;;;;20.10;5.80;;;;;;;21.56;24.22;98849.91;25036;1314;3055449;-69
2022/05/24 11:27:33;;;;;;;12.20;4.90;;;;;;;21.70;22.81;98856.20;24996;1317;3052406;-64
2022/05/24 11:30:25;;;;;;;15.00;4.70;;;;;;;21.54;22.26;98858.89;25090;1314;3026791;-66
2022/05/24 11:33:05;;;;;;;12.40;4.70;;;;;;;21.67;22.18;98867.57;25079;1314;3051792;-65
2022/05/24 11:35:53;;;;;;;13.70;4.90;;;;;;;21.68;22.07;98862.42;25308;1315;3054682;-62
2022/05/24 11:38:23;;;;;;;13.90;4.50;;;;;;;21.74;22.36;98852.33;25496;1318;3051356;-60
2022/05/24 11:40:54;;;;;;;13.00;4.50;;;;;;;21.65;22.29;98855.91;25461;1314;3026840;-58
2022/05/24 11:43:36;;;;;;;17.40;5.10;;;;;;;21.79;22.14;98859.23;25195;1315;3052537;-67
2022/05/24 11:46:10;;;;;;;15.90;5.00;;;;;;;21.96;21.52;98865.09;25038;1314;3055518;-62
2022/05/24 11:48:44;;;;;;;14.00;4.50;;;;;;;22.02;20.63;98869.17;25049;1314;3026000;-66
2022/05/24 11:51:39;;;;;;;9.50;4.00;;;;;;;21.91;19.51;98864.46;25056;1317;3026761;-66
2022/05/24 11:54:18;;;;;;;13.40;4.20;;;;;;;22.19;18.58;98861.33;25054;1314;3055343;-66
2022/05/24 11:56:55;;;;;;;12.80;4.70;;;;;;;22.38;19.39;98857.10;25034;1314;3052008;-63
2022/05/24 11:59:39;;;;;;;9.60;3.80;;;;;;;22.68;20.43;98855.69;25014;1317;3067935;-63
2022/05/24 12:02:32;;;;;;;9.00;4.00;;;;;;;22.63;20.84;98869.27;25074;1315;3052069;-64
2022/05/24 12:08:22;;;;;;;12.40;5.00;;;;;;;22.50;22.02;98869.95;25018;1318;3053991;-66
2022/05/24 12:11:12;;;;;;;16.20;4.30;;;;;;;22.37;22.04;98864.03;25044;1314;3057283;-65
2022/05/24 12:13:48;;;;;;;10.30;4.20;;;;;;;22.53;22.11;98857.69;24906;1317;3053780;-68
2022/05/24 12:16:45;;;;;;;16.60;5.40;;;;;;;22.72;22.28;98860.93;25014;1315;3053284;-62